Etusivu
METAR-TAF:

METAR-TAF

Lentoasemat :

Larnakan kansainvälinen lentoasema

Larnaka, Kypros

Leveyspiiri: 34-53N, Pituuspiiri: 033-38E, korkeus merenpinnasta: 2 m

Tämänhetkinen sää

Tämä raportti tehtiin 36 minuuttia sitten, kello 21.30 UTC
Tuuli 9 kn luoteesta
Lämpötila 27°C
Kosteus 32%
Ilmanpaine 1009 hPa
Näkyvyys 10 km tai enemmän
ei pilviä alle 1500 m:ssä eikä cumulonimbus-pilviä

METAR: LCLK 182130Z 31009KT CAVOK 27/09 Q1009 NOSIG

Aika: 01:06 (22:06 UTC)

Sääennuste

Tämä raportti tehtiin 4 tuntia ja 36 minuuttia sitten, kello 17.30 UTC
Ennuste voimassa 18. päivästä klo 18 UTC - 19. päivään klo 18 UTC
Tuuli 6 kn luoteesta
Näkyvyys 10 km tai enemmän
Muutamia pilviä 3000 ft:n korkeudessa
Tulossa
19. päivästä klo 08 UTC - 19. päivään klo 12 UTC
Tuuli 12 kn etelästä/lounaasta
Tulossa
19. päivästä klo 16 UTC - 19. päivään klo 18 UTC
Tuuli 6 kn lännestä/luoteesta

TAF: LCLK 181730Z 1818/1918 31006KT 9999 FEW030 BECMG 1908/1912 20012KT BECMG 1916/1918 30006KT

Säähavainnot ja -ennusteet yli 4000 lentoasemalta (METAR- ja TAF-raportit).

Käytössä olevat sääasemat on merkitty karttaan keltaisilla ja punaisilla pisteillä.

Aseta hiiri pisteen päälle nähdäksesi sääaseman nimen.

Klikkaa sitten nähdäksesi säähavainnot ja -ennusteet.

Kartan vaihtaminen: klikkaa mustalla rastilla varustettuja vihreitä pisteitä, niin voit zoomata sisään; viivalla varustettua vihreää pistettä, niin voit zoomata ulos tai vihreitä nuolia, niin pääset viereisille kartoille.


METAR-TAF: